createdAt,value
2019-02-28T00:01:39.353Z,24.47
2019-02-28T00:04:25.720Z,22.53
2019-02-28T00:06:55.708Z,15.10
2019-02-28T00:09:25.680Z,17.57
2019-02-28T00:11:55.405Z,26.77
2019-02-28T00:14:24.040Z,19.73
2019-02-28T00:16:52.979Z,17.43
2019-02-28T00:26:46.530Z,18.83
2019-02-28T00:29:10.217Z,17.43
2019-02-28T00:31:39.639Z,14.90
2019-02-28T00:34:07.545Z,15.40
2019-02-28T00:36:40.921Z,18.77
2019-02-28T00:39:10.265Z,20.37
2019-02-28T00:41:42.985Z,17.97
2019-02-28T00:44:08.478Z,18.57
2019-02-28T00:46:37.288Z,18.57
2019-02-28T00:49:06.303Z,17.17
2019-02-28T00:51:33.938Z,18.43
2019-02-28T00:54:02.936Z,18.93
2019-02-28T00:56:31.898Z,18.83
2019-02-28T00:59:00.485Z,16.73
2019-02-28T01:01:33.864Z,15.57
2019-02-28T01:04:01.559Z,17.17
2019-02-28T01:06:30.252Z,18.80
2019-02-28T01:08:59.060Z,19.40
2019-02-28T01:11:26.902Z,21.40
2019-02-28T01:14:01.510Z,19.90
2019-02-28T01:16:29.340Z,17.67
2019-02-28T01:18:58.049Z,19.33
2019-02-28T01:21:26.890Z,19.97
2019-02-28T01:24:00.656Z,17.03
2019-02-28T01:26:30.493Z,16.63
2019-02-28T01:29:02.768Z,20.87
2019-02-28T01:31:30.448Z,16.80
2019-02-28T01:34:03.077Z,31.80
2019-02-28T01:36:31.812Z,41.87
2019-02-28T01:38:59.368Z,47.63
2019-02-28T01:41:28.935Z,30.57
2019-02-28T01:43:56.626Z,23.70
2019-02-28T01:49:29.760Z,19.70
2019-02-28T01:52:36.696Z,18.67
2019-02-28T01:55:25.020Z,15.80
2019-02-28T02:01:46.113Z,17.53
2019-02-28T02:33:54.477Z,17.33
2019-02-28T02:36:23.690Z,17.33
2019-02-28T02:38:51.276Z,15.17
2019-02-28T02:41:18.985Z,16.43
2019-02-28T02:43:46.618Z,14.97
2019-02-28T02:46:35.109Z,11.30
2019-02-28T02:49:04.133Z,10.73
2019-02-28T02:51:31.805Z,14.67
2019-02-28T02:53:59.508Z,14.27
2019-02-28T02:56:28.795Z,14.03
2019-02-28T02:59:01.091Z,13.13
2019-02-28T03:01:29.555Z,12.03
2019-02-28T03:03:58.287Z,13.03
2019-02-28T03:06:27.128Z,14.03
2019-02-28T03:08:54.903Z,15.37
2019-02-28T03:11:26.035Z,17.37
2019-02-28T03:13:53.770Z,19.80
2019-02-28T03:16:22.815Z,16.90
2019-02-28T03:18:56.477Z,15.47
2019-02-28T03:21:21.255Z,20.13
2019-02-28T03:23:50.542Z,13.60
2019-02-28T03:26:21.043Z,18.50
2019-02-28T03:28:50.123Z,17.70
2019-02-28T03:31:21.213Z,18.30
2019-02-28T03:33:50.196Z,16.40
2019-02-28T03:36:17.859Z,18.73
2019-02-28T03:38:49.630Z,15.80
2019-02-28T03:41:17.907Z,16.93
2019-02-28T03:43:49.029Z,21.07
2019-02-28T03:46:16.731Z,17.67
2019-02-28T03:48:44.355Z,22.63
2019-02-28T03:51:13.474Z,18.50
2019-02-28T03:53:55.676Z,18.40
2019-02-28T03:56:20.336Z,19.33
2019-02-28T03:58:48.328Z,17.27
2019-02-28T04:01:17.081Z,21.30
2019-02-28T04:03:45.990Z,19.07
2019-02-28T04:06:19.953Z,20.83
2019-02-28T04:08:51.031Z,22.53
2019-02-28T04:11:20.012Z,17.77
2019-02-28T04:13:52.400Z,18.30
2019-02-28T04:16:22.031Z,20.57
2019-02-28T04:18:53.456Z,22.50
2019-02-28T04:21:22.177Z,22.53
2019-02-28T04:23:51.397Z,22.23
2019-02-28T04:26:20.617Z,19.93
2019-02-28T04:28:53.277Z,21.30
2019-02-28T04:31:19.970Z,23.63
2019-02-28T04:33:48.588Z,25.10
2019-02-28T04:36:16.354Z,24.90
2019-02-28T04:38:44.915Z,19.40
2019-02-28T04:41:13.773Z,24.17
2019-02-28T04:43:44.359Z,26.33
2019-02-28T04:46:14.948Z,19.83
2019-02-28T04:48:45.625Z,23.00
2019-02-28T04:51:13.666Z,24.17
2019-02-28T04:53:45.514Z,24.73
2019-02-28T04:56:14.583Z,24.43
2019-02-28T04:58:43.064Z,20.60
2019-02-28T05:01:12.485Z,22.60
2019-02-28T05:03:41.991Z,27.83
2019-02-28T05:06:09.601Z,24.67
2019-02-28T05:08:38.888Z,20.07
2019-02-28T05:11:08.201Z,19.77
2019-02-28T05:13:37.099Z,20.80
2019-02-28T05:16:09.419Z,22.27
2019-02-28T05:18:38.409Z,25.17
2019-02-28T05:21:10.257Z,26.83
2019-02-28T05:23:51.557Z,19.70
2019-02-28T05:26:20.290Z,21.23
2019-02-28T05:28:48.029Z,28.97
2019-02-28T05:31:15.705Z,19.00
2019-02-28T05:33:44.467Z,24.57
2019-02-28T05:36:14.660Z,18.87
2019-02-28T05:38:43.884Z,21.83
2019-02-28T05:41:15.272Z,22.87
2019-02-28T05:43:42.476Z,25.47
2019-02-28T05:46:11.232Z,22.93
2019-02-28T05:48:39.444Z,23.37
2019-02-28T05:51:09.105Z,21.97
2019-02-28T05:53:41.370Z,21.57
2019-02-28T05:56:10.041Z,25.37
2019-02-28T06:03:06.110Z,24.07
2019-02-28T06:05:35.330Z,23.80
2019-02-28T06:08:03.571Z,24.17
2019-02-28T06:10:35.367Z,21.47
2019-02-28T06:13:06.688Z,21.87
2019-02-28T06:15:53.757Z,17.43
2019-02-28T06:18:55.844Z,23.47
2019-02-28T06:21:33.629Z,20.67
2019-02-28T06:24:02.965Z,28.10
2019-02-28T06:26:36.386Z,25.77
2019-02-28T06:29:29.261Z,24.47
2019-02-28T06:32:00.494Z,31.20
2019-02-28T06:34:31.077Z,24.43
2019-02-28T06:37:10.617Z,19.80
2019-02-28T06:39:39.823Z,21.20
2019-02-28T06:44:58.717Z,23.40
2019-02-28T06:47:47.991Z,32.00
2019-02-28T06:50:30.124Z,19.37
2019-02-28T06:53:17.604Z,28.13
2019-02-28T06:55:48.614Z,23.87
2019-02-28T06:58:19.286Z,17.67
2019-02-28T07:01:06.448Z,30.23
2019-02-28T07:03:39.022Z,23.53
2019-02-28T07:10:18.450Z,23.07
2019-02-28T07:13:11.831Z,22.27
2019-02-28T07:15:39.854Z,22.93
2019-02-28T07:18:08.154Z,22.40
2019-02-28T07:20:37.665Z,21.10
2019-02-28T07:23:22.263Z,24.80
2019-02-28T07:26:12.480Z,24.90
2019-02-28T07:28:42.173Z,24.47
2019-02-28T07:31:31.105Z,20.17
2019-02-28T07:37:47.179Z,18.27
2019-02-28T07:40:17.344Z,22.53
2019-02-28T07:50:10.800Z,25.13
2019-02-28T07:52:40.128Z,20.63
2019-02-28T07:55:09.206Z,22.73
2019-02-28T07:57:37.759Z,19.43
2019-02-28T08:00:18.271Z,24.83
2019-02-28T08:02:44.871Z,35.37
2019-02-28T08:05:33.798Z,29.37
2019-02-28T08:08:17.265Z,22.13
2019-02-28T08:10:49.343Z,26.13
2019-02-28T08:13:23.939Z,23.03
2019-02-28T08:16:08.503Z,24.50
2019-02-28T08:18:36.395Z,24.87
2019-02-28T08:21:05.419Z,27.53
2019-02-28T08:23:42.966Z,27.40
2019-02-28T08:26:10.682Z,30.73
2019-02-28T08:32:25.930Z,25.43
2019-02-28T08:34:55.520Z,30.97
2019-02-28T08:37:32.793Z,24.97
2019-02-28T08:40:08.815Z,27.87
2019-02-28T08:42:45.446Z,25.47
2019-02-28T08:46:13.889Z,22.43
2019-02-28T08:49:06.283Z,22.20
2019-02-28T08:51:40.755Z,20.50
2019-02-28T08:54:13.047Z,23.70
2019-02-28T08:56:54.135Z,23.27
2019-02-28T09:03:53.515Z,23.50
2019-02-28T09:06:22.027Z,25.07
2019-02-28T09:08:56.617Z,23.67
2019-02-28T09:11:28.511Z,28.23
2019-02-28T09:13:58.206Z,25.33
2019-02-28T09:16:25.779Z,37.70
2019-02-28T09:18:57.489Z,30.93
2019-02-28T09:21:27.740Z,26.90
2019-02-28T09:23:57.420Z,26.37
2019-02-28T09:26:31.257Z,28.90
2019-02-28T09:29:00.657Z,30.87
2019-02-28T09:31:39.071Z,31.37
2019-02-28T09:34:04.628Z,37.33
2019-02-28T09:36:32.409Z,36.30
2019-02-28T09:39:05.882Z,30.77
2019-02-28T09:41:51.761Z,29.80
2019-02-28T09:44:31.471Z,34.77
2019-02-28T09:47:11.680Z,31.00
2019-02-28T09:49:54.907Z,26.20
2019-02-28T09:52:27.739Z,32.60
2019-02-28T09:54:56.350Z,34.33
2019-02-28T09:57:25.588Z,30.43
2019-02-28T10:00:02.423Z,35.97
2019-02-28T10:02:31.909Z,35.40
2019-02-28T10:05:06.648Z,31.93
2019-02-28T10:07:35.590Z,38.50
2019-02-28T10:10:08.739Z,41.77
2019-02-28T10:12:44.014Z,38.00
2019-02-28T10:22:18.474Z,42.60
2019-02-28T10:24:48.181Z,45.87
2019-02-28T10:28:01.576Z,48.83
2019-02-28T10:34:41.104Z,44.57
2019-02-28T10:40:27.754Z,47.47
2019-02-28T10:42:56.809Z,49.10
2019-02-28T10:45:25.972Z,43.87
2019-02-28T10:47:55.210Z,45.00
2019-02-28T10:50:31.993Z,43.97
2019-02-28T10:53:04.576Z,41.70
2019-02-28T10:59:15.776Z,44.73
2019-02-28T11:02:05.370Z,40.60
2019-02-28T11:05:08.808Z,45.47
2019-02-28T11:08:02.483Z,41.60
2019-02-28T11:10:41.764Z,40.20
2019-02-28T11:16:58.848Z,44.90
2019-02-28T11:19:52.013Z,42.97
2019-02-28T11:22:20.050Z,38.87
2019-02-28T11:28:30.515Z,40.83
2019-02-28T11:31:00.456Z,42.27
2019-02-28T11:33:30.689Z,36.90
2019-02-28T11:39:59.454Z,38.63
2019-02-28T11:42:31.157Z,35.50
2019-02-28T11:45:06.173Z,31.60
2019-02-28T11:47:33.824Z,30.77
2019-02-28T11:50:04.638Z,34.43
2019-02-28T11:53:30.827Z,33.33
2019-02-28T11:57:03.035Z,34.60
2019-02-28T12:03:23.700Z,35.93
2019-02-28T12:05:27.652Z,31.07
2019-02-28T12:07:57.344Z,32.83
2019-02-28T12:14:22.102Z,35.13
2019-02-28T12:17:28.598Z,34.47
2019-02-28T12:23:54.240Z,30.83
2019-02-28T12:26:29.112Z,35.80
2019-02-28T12:29:41.724Z,31.93
2019-02-28T12:33:08.585Z,29.27
2019-02-28T12:35:40.523Z,27.30
2019-02-28T12:38:08.840Z,30.00
2019-02-28T12:40:56.089Z,28.47
2019-02-28T12:43:43.424Z,25.30
2019-02-28T12:47:13.376Z,27.27
2019-02-28T12:50:10.528Z,28.27
2019-02-28T12:59:23.583Z,21.93
2019-02-28T13:02:25.782Z,26.60
2019-02-28T13:05:26.447Z,27.10
2019-02-28T13:08:17.892Z,26.30
2019-02-28T13:10:49.279Z,26.57
2019-02-28T13:13:44.686Z,24.03
2019-02-28T13:19:24.546Z,25.67
2019-02-28T13:22:12.925Z,26.17
2019-02-28T13:25:03.619Z,26.70
2019-02-28T13:28:17.638Z,25.17
2019-02-28T13:31:12.156Z,25.20
2019-02-28T13:34:13.084Z,23.60
2019-02-28T13:36:40.953Z,29.83
2019-02-28T13:39:12.263Z,27.17
2019-02-28T13:42:04.329Z,22.47
2019-02-28T13:44:56.779Z,29.37
2019-02-28T13:47:25.881Z,26.07
2019-02-28T13:50:11.259Z,27.20
2019-02-28T13:53:17.598Z,25.87
2019-02-28T13:55:40.963Z,23.33
2019-02-28T13:58:53.827Z,26.13
2019-02-28T14:02:16.069Z,22.60
2019-02-28T14:04:45.388Z,26.67
2019-02-28T14:07:18.753Z,23.77
2019-02-28T14:10:21.491Z,21.07
2019-02-28T14:13:35.011Z,21.77
2019-02-28T14:16:26.521Z,21.83
2019-02-28T14:18:51.569Z,19.20
2019-02-28T14:21:53.349Z,22.93
2019-02-28T14:24:27.484Z,22.17
2019-02-28T14:27:06.544Z,20.07
2019-02-28T14:33:25.739Z,23.63
2019-02-28T14:35:53.768Z,27.63
2019-02-28T14:38:26.098Z,23.33
2019-02-28T14:41:06.501Z,22.13
2019-02-28T14:47:13.537Z,27.40
2019-02-28T14:49:48.490Z,24.00
2019-02-28T14:53:07.299Z,25.50
2019-02-28T14:55:42.822Z,24.93
2019-02-28T14:58:13.909Z,27.90
2019-02-28T15:00:42.230Z,26.27
2019-02-28T15:03:26.971Z,22.63
2019-02-28T15:06:57.501Z,28.57
2019-02-28T15:09:46.554Z,24.17
2019-02-28T15:16:08.292Z,23.27
2019-02-28T15:18:47.463Z,24.30
2019-02-28T15:21:42.043Z,23.90
2019-02-28T15:24:20.838Z,27.43
2019-02-28T15:27:06.468Z,25.30
2019-02-28T15:29:46.693Z,24.53
2019-02-28T15:32:17.242Z,30.03
2019-02-28T15:35:24.355Z,31.40
2019-02-28T15:38:38.104Z,28.80
2019-02-28T15:41:33.637Z,27.90
2019-02-28T15:43:57.982Z,31.90
2019-02-28T15:46:31.107Z,30.97
2019-02-28T15:48:58.869Z,29.50
2019-02-28T15:51:29.396Z,30.47
2019-02-28T15:54:03.361Z,29.87
2019-02-28T15:56:42.580Z,28.30
2019-02-28T16:00:05.413Z,25.27
2019-02-28T16:02:38.641Z,32.63
2019-02-28T16:05:25.771Z,29.97
2019-02-28T16:08:17.197Z,26.83
2019-02-28T16:14:44.972Z,29.30
2019-02-28T16:17:27.791Z,30.73
2019-02-28T16:20:13.150Z,26.57
2019-02-28T16:22:53.228Z,30.53
2019-02-28T16:25:29.191Z,32.80
2019-02-28T16:31:38.621Z,30.83
2019-02-28T16:34:08.344Z,29.77
2019-02-28T16:36:38.182Z,27.60
2019-02-28T16:39:07.259Z,30.80
2019-02-28T16:41:36.937Z,28.70
2019-02-28T16:44:08.267Z,26.13
2019-02-28T16:46:40.349Z,28.53
2019-02-28T16:49:19.495Z,28.90
2019-02-28T16:52:26.304Z,28.67
2019-02-28T16:55:32.930Z,33.40
2019-02-28T16:58:21.783Z,32.17
2019-02-28T17:01:04.465Z,30.87
2019-02-28T17:04:32.423Z,30.87
2019-02-28T17:08:15.550Z,30.80
2019-02-28T17:10:54.366Z,28.83
2019-02-28T17:13:40.353Z,33.40
2019-02-28T17:16:38.745Z,34.80
2019-02-28T17:19:58.698Z,30.57
2019-02-28T17:23:18.694Z,32.30
2019-02-28T17:29:46.294Z,28.20
2019-02-28T17:32:19.022Z,33.53
2019-02-28T17:34:48.016Z,25.70
2019-02-28T17:37:20.455Z,32.97
2019-02-28T17:39:54.070Z,31.47
2019-02-28T17:43:02.603Z,34.10
2019-02-28T17:50:05.826Z,27.77
2019-02-28T17:52:59.695Z,31.07
2019-02-28T17:56:44.433Z,35.80
2019-02-28T17:59:55.095Z,39.33
2019-02-28T18:21:59.005Z,43.37
2019-02-28T18:25:08.352Z,38.33
2019-02-28T18:28:32.237Z,40.80
2019-02-28T18:31:29.911Z,44.97
2019-02-28T18:34:33.623Z,38.37
2019-02-28T18:37:39.583Z,40.80
2019-02-28T18:40:14.406Z,40.57
2019-02-28T18:42:51.453Z,38.13
2019-02-28T18:45:37.611Z,37.17
2019-02-28T18:48:14.682Z,35.67
2019-02-28T18:50:47.354Z,30.33
2019-02-28T18:53:16.627Z,33.57
2019-02-28T18:55:45.653Z,33.60
2019-02-28T18:58:39.898Z,25.93
2019-02-28T19:01:21.111Z,26.97
2019-02-28T19:03:49.515Z,25.80
2019-02-28T19:06:20.769Z,28.00
2019-02-28T19:09:17.700Z,30.63
2019-02-28T19:11:52.665Z,26.73
2019-02-28T19:14:49.262Z,26.23
2019-02-28T19:22:10.329Z,33.17
2019-02-28T19:28:50.250Z,33.13
2019-02-28T19:31:24.882Z,33.47
2019-02-28T19:33:53.302Z,30.77
2019-02-28T19:36:30.779Z,30.70
2019-02-28T19:39:24.790Z,30.62
2019-02-28T19:46:01.254Z,21.73
2019-02-28T19:48:32.924Z,17.20
2019-02-28T19:51:05.151Z,16.77
2019-02-28T20:00:51.935Z,17.23
2019-02-28T20:04:25.809Z,22.53
2019-02-28T20:06:56.330Z,20.43
2019-02-28T20:09:29.242Z,23.83
2019-02-28T20:12:00.831Z,21.13
2019-02-28T20:14:28.859Z,15.00
2019-02-28T20:17:02.098Z,15.23
2019-02-28T20:19:30.253Z,14.63
2019-02-28T20:22:07.502Z,16.03
2019-02-28T20:24:39.396Z,12.93
2019-02-28T20:27:35.649Z,13.90
2019-02-28T20:30:16.467Z,17.53
2019-02-28T20:32:46.590Z,16.20
2019-02-28T20:35:26.753Z,15.13
2019-02-28T20:37:56.811Z,12.03
2019-02-28T20:40:31.232Z,12.67
2019-02-28T20:43:07.075Z,13.30
2019-02-28T20:45:35.290Z,11.67
2019-02-28T20:48:09.340Z,15.20
2019-02-28T20:50:43.500Z,12.87
2019-02-28T20:53:11.961Z,10.43
2019-02-28T20:55:49.062Z,11.80
2019-02-28T20:58:25.694Z,11.70
2019-02-28T21:01:13.092Z,16.27
2019-02-28T21:03:53.147Z,10.87
2019-02-28T21:06:41.489Z,10.90
2019-02-28T21:09:26.622Z,12.27
2019-02-28T21:11:55.090Z,9.60
2019-02-28T21:14:50.166Z,8.43
2019-02-28T21:20:42.339Z,8.93
2019-02-28T21:23:21.825Z,10.17
2019-02-28T21:25:54.799Z,13.63
2019-02-28T21:28:41.888Z,8.73
2019-02-28T21:31:29.323Z,9.07
2019-02-28T21:33:59.565Z,11.10
2019-02-28T21:36:27.708Z,10.33
2019-02-28T21:39:04.831Z,12.17
2019-02-28T21:41:37.202Z,9.10
2019-02-28T21:44:05.233Z,7.43
2019-02-28T21:46:40.097Z,10.83
2019-02-28T21:49:11.129Z,10.50
2019-02-28T21:51:55.190Z,14.77
2019-02-28T21:54:23.626Z,10.73
2019-02-28T21:56:56.592Z,11.53
2019-02-28T21:59:24.321Z,12.63
2019-02-28T22:01:52.377Z,12.93
2019-02-28T22:04:23.118Z,12.47
2019-02-28T22:06:56.138Z,13.47
2019-02-28T22:09:26.609Z,10.83
2019-02-28T22:12:01.641Z,11.70
2019-02-28T22:14:39.434Z,13.83
2019-02-28T22:17:10.438Z,10.93
2019-02-28T22:19:56.638Z,8.37
2019-02-28T22:22:28.686Z,14.60
2019-02-28T22:24:56.802Z,13.77
2019-02-28T22:27:29.316Z,14.40
2019-02-28T22:30:00.645Z,16.23
2019-02-28T22:32:46.631Z,18.30
2019-02-28T22:35:30.738Z,19.90
2019-02-28T22:38:01.894Z,20.60
2019-02-28T22:40:31.278Z,19.00
2019-02-28T22:43:01.078Z,19.10
2019-02-28T22:45:28.808Z,14.97
2019-02-28T22:47:56.721Z,18.23
2019-02-28T22:50:25.660Z,18.20
2019-02-28T22:52:56.407Z,20.03
2019-02-28T22:55:25.270Z,16.60
2019-02-28T22:57:53.208Z,21.00
2019-02-28T23:00:29.425Z,17.33
2019-02-28T23:02:57.368Z,21.20
2019-02-28T23:05:27.579Z,19.13
2019-02-28T23:07:58.862Z,20.30
2019-02-28T23:10:26.519Z,26.97
2019-02-28T23:12:55.571Z,23.83
2019-02-28T23:15:25.419Z,21.30
2019-02-28T23:17:56.416Z,20.13
2019-02-28T23:20:24.121Z,21.03
2019-02-28T23:22:51.791Z,28.47
2019-02-28T23:25:24.780Z,21.90
2019-02-28T23:28:08.536Z,21.53
2019-02-28T23:31:04.173Z,23.70
2019-02-28T23:33:34.250Z,24.60
2019-02-28T23:38:47.444Z,23.53
2019-02-28T23:50:24.941Z,22.03
2019-02-28T23:58:40.612Z,27.10
